createdAt,value
2023-03-27T00:00:56.017Z,7.50
2023-03-27T00:01:59.850Z,7.50
2023-03-27T00:03:02.433Z,6.00
2023-03-27T00:04:07.050Z,8.09
2023-03-27T00:05:10.582Z,8.40
2023-03-27T00:06:16.974Z,5.60
2023-03-27T00:07:20.075Z,6.90
2023-03-27T00:08:22.684Z,7.40
2023-03-27T00:09:25.006Z,8.00
2023-03-27T00:10:28.537Z,7.00
2023-03-27T00:11:31.927Z,7.10
2023-03-27T00:12:34.383Z,8.60
2023-03-27T00:13:48.914Z,7.50
2023-03-27T00:14:41.803Z,6.80
2023-03-27T00:15:45.704Z,7.10
2023-03-27T00:16:48.440Z,7.10
2023-03-27T00:17:52.629Z,5.80
2023-03-27T00:18:56.046Z,7.90
2023-03-27T00:20:01.124Z,7.80
2023-03-27T00:21:04.750Z,8.50
2023-03-27T00:22:07.390Z,5.20
2023-03-27T00:23:09.801Z,7.60
2023-03-27T00:24:14.391Z,6.50
2023-03-27T00:25:17.581Z,7.40
2023-03-27T00:26:21.467Z,6.60
2023-03-27T00:27:24.571Z,7.80
2023-03-27T00:28:28.722Z,7.60
2023-03-27T00:29:31.471Z,6.70
2023-03-27T00:30:35.870Z,5.00
2023-03-27T00:31:38.929Z,6.00
2023-03-27T00:32:42.100Z,9.60
2023-03-27T00:33:45.372Z,6.50
2023-03-27T00:34:47.858Z,6.60
2023-03-27T00:35:51.996Z,7.30
2023-03-27T00:36:54.559Z,6.90
2023-03-27T00:37:58.275Z,7.20
2023-03-27T00:39:01.663Z,8.70
2023-03-27T00:40:08.236Z,4.30
2023-03-27T00:41:12.022Z,8.00
2023-03-27T00:42:16.722Z,7.40
2023-03-27T00:43:28.293Z,6.60
2023-03-27T00:44:33.884Z,7.50
2023-03-27T00:45:38.650Z,8.60
2023-03-27T00:46:43.603Z,6.50
2023-03-27T00:47:48.892Z,7.20
2023-03-27T00:48:52.661Z,6.80
2023-03-27T00:49:55.839Z,7.50
2023-03-27T00:50:58.580Z,6.30
2023-03-27T00:52:01.756Z,8.36
2023-03-27T00:54:24.177Z,6.00
2023-03-27T00:55:28.306Z,6.70
2023-03-27T00:56:32.824Z,5.80
2023-03-27T00:57:36.830Z,8.40
2023-03-27T00:58:41.122Z,7.80
2023-03-27T00:59:43.708Z,7.80
2023-03-27T01:00:48.834Z,8.27
2023-03-27T01:01:53.003Z,6.80
2023-03-27T01:02:55.734Z,7.00
2023-03-27T01:04:01.230Z,8.00
2023-03-27T01:05:05.690Z,8.70
2023-03-27T01:06:10.497Z,7.10
2023-03-27T01:07:16.063Z,0.60
2023-03-27T01:08:18.652Z,7.70
2023-03-27T01:09:21.739Z,7.10
2023-03-27T01:10:28.230Z,7.20
2023-03-27T01:11:37.744Z,7.50
2023-03-27T01:14:39.106Z,7.90
2023-03-27T01:15:52.185Z,6.80
2023-03-27T01:17:14.115Z,6.70
2023-03-27T01:18:30.051Z,6.90
2023-03-27T01:19:46.544Z,5.50
2023-03-27T01:20:57.381Z,9.70
2023-03-27T01:22:21.469Z,7.80
2023-03-27T01:24:00.202Z,9.10
2023-03-27T01:25:17.090Z,7.40
2023-03-27T01:26:36.117Z,7.70
2023-03-27T01:29:33.727Z,7.50
2023-03-27T01:32:29.137Z,6.20
2023-03-27T01:34:08.997Z,5.20
2023-03-27T01:35:33.934Z,7.50
2023-03-27T01:36:49.916Z,7.00
2023-03-27T01:38:28.669Z,7.80
2023-03-27T01:39:45.677Z,6.80
2023-03-27T01:42:39.584Z,7.90
2023-03-27T01:45:12.317Z,6.90
2023-03-27T01:46:26.263Z,6.20
2023-03-27T01:49:06.288Z,6.60
2023-03-27T01:50:34.676Z,7.80
2023-03-27T01:53:13.464Z,6.40
2023-03-27T01:55:49.129Z,6.70
2023-03-27T01:57:09.572Z,6.80
2023-03-27T01:58:14.352Z,7.60
2023-03-27T01:59:17.553Z,5.80
2023-03-27T02:00:22.650Z,4.80
2023-03-27T02:01:28.909Z,4.80
2023-03-27T02:02:31.870Z,7.00
2023-03-27T02:03:41.621Z,6.09
2023-03-27T02:04:52.753Z,6.70
2023-03-27T02:07:15.283Z,3.70
2023-03-27T02:08:26.146Z,6.40
2023-03-27T02:09:38.341Z,5.10
2023-03-27T02:10:43.131Z,6.50
2023-03-27T02:12:00.606Z,6.00
2023-03-27T02:13:06.570Z,7.00
2023-03-27T02:14:18.309Z,6.40
2023-03-27T02:15:25.175Z,5.60
2023-03-27T02:16:31.320Z,6.70
2023-03-27T02:17:40.006Z,5.90
2023-03-27T02:18:46.148Z,6.20
2023-03-27T02:21:07.113Z,2.60
2023-03-27T02:22:11.497Z,5.00
2023-03-27T02:23:22.346Z,6.40
2023-03-27T02:24:25.219Z,5.80
2023-03-27T02:25:41.419Z,5.10
2023-03-27T02:26:44.636Z,6.50
2023-03-27T02:27:47.625Z,5.20
2023-03-27T02:29:16.142Z,5.20
2023-03-27T02:31:39.772Z,4.50
2023-03-27T02:34:16.908Z,2.80
2023-03-27T02:35:33.189Z,4.50
2023-03-27T02:36:49.656Z,4.50
2023-03-27T02:38:08.628Z,5.50
2023-03-27T02:39:16.564Z,5.30
2023-03-27T02:40:44.950Z,6.90
2023-03-27T02:42:01.849Z,6.00
2023-03-27T02:44:46.564Z,6.10
2023-03-27T02:45:53.727Z,5.50
2023-03-27T02:48:33.545Z,4.40
2023-03-27T02:49:39.883Z,5.10
2023-03-27T02:50:49.897Z,4.90
2023-03-27T02:53:10.215Z,5.10
2023-03-27T02:54:15.449Z,6.90
2023-03-27T02:55:20.869Z,5.30
2023-03-27T02:56:24.068Z,6.10
2023-03-27T02:57:26.816Z,4.36
2023-03-27T02:58:56.921Z,4.50
2023-03-27T03:01:23.007Z,4.10
2023-03-27T03:02:32.009Z,5.00
2023-03-27T03:03:54.455Z,5.90
2023-03-27T03:05:10.311Z,4.90
2023-03-27T03:06:14.982Z,4.50
2023-03-27T03:07:18.387Z,4.00
2023-03-27T03:08:21.116Z,4.70
2023-03-27T03:09:26.910Z,3.40
2023-03-27T03:10:29.529Z,5.60
2023-03-27T03:11:34.379Z,3.60
2023-03-27T03:12:37.917Z,4.70
2023-03-27T03:13:40.988Z,4.60
2023-03-27T03:14:45.373Z,5.00
2023-03-27T03:15:49.528Z,3.60
2023-03-27T03:16:53.221Z,4.60
2023-03-27T03:17:58.249Z,4.60
2023-03-27T03:19:01.380Z,0.60
2023-03-27T03:20:09.169Z,5.80
2023-03-27T03:21:12.774Z,5.20
2023-03-27T03:22:15.458Z,4.50
2023-03-27T03:23:18.198Z,4.60
2023-03-27T03:24:22.182Z,6.40
2023-03-27T03:25:25.817Z,4.80
2023-03-27T03:26:29.437Z,6.10
2023-03-27T03:27:33.588Z,4.90
2023-03-27T03:28:40.422Z,5.80
2023-03-27T03:29:45.749Z,6.50
2023-03-27T03:30:53.234Z,3.50
2023-03-27T03:31:57.138Z,7.10
2023-03-27T03:33:00.985Z,5.80
2023-03-27T03:34:03.602Z,6.60
2023-03-27T03:35:09.407Z,6.90
2023-03-27T03:36:13.980Z,6.80
2023-03-27T03:37:18.783Z,6.20
2023-03-27T03:38:23.315Z,6.50
2023-03-27T03:39:25.951Z,6.70
2023-03-27T03:40:29.187Z,7.30
2023-03-27T03:41:33.104Z,7.50
2023-03-27T03:42:37.754Z,7.40
2023-03-27T03:43:40.705Z,6.30
2023-03-27T03:44:44.125Z,7.70
2023-03-27T03:45:49.447Z,7.20
2023-03-27T03:46:53.172Z,7.90
2023-03-27T03:47:56.805Z,8.90
2023-03-27T03:49:00.653Z,8.30
2023-03-27T03:50:05.002Z,8.00
2023-03-27T03:51:07.590Z,9.00
2023-03-27T03:52:10.625Z,9.27
2023-03-27T03:53:14.794Z,7.36
2023-03-27T03:54:18.418Z,8.20
2023-03-27T03:55:21.706Z,8.80
2023-03-27T03:56:26.922Z,9.00
2023-03-27T03:57:29.951Z,7.10
2023-03-27T03:58:38.916Z,8.90
2023-03-27T03:59:41.469Z,8.40
2023-03-27T04:00:58.370Z,8.70
2023-03-27T04:02:11.309Z,10.80
2023-03-27T04:03:14.701Z,8.50
2023-03-27T04:04:17.686Z,10.50
2023-03-27T04:05:28.133Z,12.10
2023-03-27T04:06:34.886Z,11.20
2023-03-27T04:07:39.257Z,13.10
2023-03-27T04:08:47.238Z,11.70
2023-03-27T04:10:05.177Z,11.60
2023-03-27T04:11:08.669Z,10.00
2023-03-27T04:12:22.508Z,12.10
2023-03-27T04:13:27.680Z,12.10
2023-03-27T04:14:33.105Z,11.50
2023-03-27T04:15:37.231Z,10.20
2023-03-27T04:16:46.476Z,11.50
2023-03-27T04:17:56.753Z,7.10
2023-03-27T04:19:00.707Z,12.20
2023-03-27T04:20:07.816Z,10.80
2023-03-27T04:21:13.045Z,11.40
2023-03-27T04:22:17.028Z,11.60
2023-03-27T04:23:19.649Z,11.90
2023-03-27T04:24:23.580Z,10.60
2023-03-27T04:25:28.361Z,10.90
2023-03-27T04:26:32.974Z,9.60
2023-03-27T04:28:58.023Z,11.20
2023-03-27T04:30:02.668Z,9.60
2023-03-27T04:32:37.794Z,9.60
2023-03-27T04:35:05.004Z,7.60
2023-03-27T04:36:11.651Z,10.30
2023-03-27T04:37:28.517Z,10.40
2023-03-27T04:38:41.713Z,10.00
2023-03-27T04:39:46.720Z,9.50
2023-03-27T04:40:49.794Z,8.60
2023-03-27T04:41:53.346Z,9.50
2023-03-27T04:42:55.997Z,9.00
2023-03-27T04:43:59.761Z,8.20
2023-03-27T04:45:04.190Z,8.50
2023-03-27T04:46:07.949Z,9.60
2023-03-27T04:47:10.996Z,7.50
2023-03-27T04:48:14.626Z,10.90
2023-03-27T04:49:18.870Z,9.10
2023-03-27T04:50:23.356Z,8.20
2023-03-27T04:51:26.398Z,8.30
2023-03-27T04:52:29.691Z,11.09
2023-03-27T04:53:35.162Z,6.20
2023-03-27T04:54:39.385Z,11.10
2023-03-27T04:55:46.852Z,8.70
2023-03-27T04:56:50.167Z,9.60
2023-03-27T04:57:53.833Z,10.50
2023-03-27T04:58:56.418Z,10.40
2023-03-27T04:59:59.715Z,9.80
2023-03-27T05:01:20.733Z,11.50
2023-03-27T05:02:33.411Z,11.40
2023-03-27T05:03:41.400Z,11.20
2023-03-27T05:04:48.230Z,11.80
2023-03-27T05:05:53.703Z,10.30
2023-03-27T05:06:57.387Z,11.20
2023-03-27T05:08:00.465Z,8.30
2023-03-27T05:09:03.462Z,12.60
2023-03-27T05:10:08.740Z,9.90
2023-03-27T05:11:12.255Z,10.10
2023-03-27T05:12:17.722Z,8.70
2023-03-27T05:13:25.200Z,10.20
2023-03-27T05:14:28.937Z,10.60
2023-03-27T05:15:33.058Z,10.70
2023-03-27T05:16:37.388Z,11.30
2023-03-27T05:17:42.780Z,11.00
2023-03-27T05:18:47.268Z,12.50
2023-03-27T05:19:50.323Z,10.90
2023-03-27T05:20:53.655Z,10.30
2023-03-27T05:21:56.658Z,11.50
2023-03-27T05:23:00.121Z,10.80
2023-03-27T05:24:04.498Z,11.20
2023-03-27T05:25:08.225Z,10.10
2023-03-27T05:26:11.355Z,10.50
2023-03-27T05:27:21.764Z,9.40
2023-03-27T05:28:25.779Z,7.80
2023-03-27T05:29:29.705Z,11.40
2023-03-27T05:30:36.521Z,10.00
2023-03-27T05:31:44.270Z,10.30
2023-03-27T05:32:51.629Z,8.90
2023-03-27T05:33:55.990Z,9.90
2023-03-27T05:34:59.484Z,9.73
2023-03-27T05:36:02.729Z,10.40
2023-03-27T05:37:05.751Z,11.00
2023-03-27T05:38:10.185Z,8.80
2023-03-27T05:39:25.095Z,9.50
2023-03-27T05:40:28.243Z,9.10
2023-03-27T05:41:31.038Z,7.10
2023-03-27T05:42:33.593Z,8.00
2023-03-27T05:43:36.550Z,9.09
2023-03-27T05:44:40.264Z,9.36
2023-03-27T05:45:42.998Z,7.30
2023-03-27T05:46:47.221Z,6.60
2023-03-27T05:47:56.564Z,9.70
2023-03-27T05:49:00.628Z,9.70
2023-03-27T05:50:05.045Z,7.00
2023-03-27T05:51:09.392Z,7.40
2023-03-27T05:52:12.443Z,8.20
2023-03-27T05:53:15.166Z,8.10
2023-03-27T05:54:20.571Z,6.90
2023-03-27T05:55:38.045Z,8.90
2023-03-27T05:56:41.389Z,8.90
2023-03-27T05:57:44.472Z,10.40
2023-03-27T05:58:47.647Z,8.90
2023-03-27T05:59:50.340Z,8.40
2023-03-27T06:00:54.866Z,8.50
2023-03-27T06:01:58.304Z,8.45
2023-03-27T06:03:03.562Z,8.30
2023-03-27T06:04:24.902Z,5.50
2023-03-27T06:05:29.602Z,9.60
2023-03-27T06:06:32.860Z,6.73
2023-03-27T06:07:35.972Z,7.30
2023-03-27T06:08:41.135Z,7.10
2023-03-27T06:09:45.150Z,6.60
2023-03-27T06:12:24.202Z,6.90
2023-03-27T06:13:29.678Z,5.90
2023-03-27T06:14:33.940Z,5.80
2023-03-27T06:15:40.589Z,3.90
2023-03-27T06:16:46.767Z,6.10
2023-03-27T06:18:04.856Z,5.50
2023-03-27T06:19:09.463Z,4.70
2023-03-27T06:20:14.616Z,6.10
2023-03-27T06:21:19.796Z,6.00
2023-03-27T06:22:24.799Z,5.70
2023-03-27T06:23:29.173Z,5.00
2023-03-27T06:24:45.814Z,5.20
2023-03-27T06:25:50.989Z,5.40
2023-03-27T06:26:55.529Z,4.80
2023-03-27T06:28:01.409Z,4.90
2023-03-27T06:29:08.685Z,5.10
2023-03-27T06:30:13.110Z,3.60
2023-03-27T06:31:22.489Z,2.90
2023-03-27T06:32:31.962Z,4.60
2023-03-27T06:33:35.337Z,5.20
2023-03-27T06:34:40.442Z,5.60
2023-03-27T06:36:03.564Z,5.40
2023-03-27T06:37:07.134Z,4.70
2023-03-27T06:38:14.054Z,4.70
2023-03-27T06:39:17.972Z,4.30
2023-03-27T06:40:27.250Z,4.60
2023-03-27T06:41:30.846Z,4.10
2023-03-27T06:42:52.718Z,5.20
2023-03-27T06:44:00.184Z,4.80
2023-03-27T06:45:10.727Z,4.00
2023-03-27T06:47:54.316Z,5.00
2023-03-27T06:49:11.984Z,5.00
2023-03-27T06:50:15.355Z,4.20
2023-03-27T06:51:20.722Z,5.50
2023-03-27T06:52:23.913Z,0.60
2023-03-27T06:53:31.187Z,4.10
2023-03-27T06:54:34.370Z,3.80
2023-03-27T06:55:37.470Z,5.20
2023-03-27T06:56:40.170Z,3.60
2023-03-27T06:59:04.109Z,4.80
2023-03-27T07:00:18.441Z,5.10
2023-03-27T07:02:58.809Z,5.80
2023-03-27T07:04:07.601Z,5.20
2023-03-27T07:05:16.064Z,4.20
2023-03-27T07:06:19.017Z,6.80
2023-03-27T07:07:24.293Z,4.70
2023-03-27T07:08:28.564Z,5.70
2023-03-27T07:09:32.491Z,4.40
2023-03-27T07:10:38.055Z,5.80
2023-03-27T07:11:44.410Z,5.00
2023-03-27T07:12:49.371Z,3.60
2023-03-27T07:13:51.872Z,1.30
2023-03-27T07:15:03.213Z,4.60
2023-03-27T07:16:10.109Z,4.00
2023-03-27T07:17:13.915Z,4.20
2023-03-27T07:18:19.030Z,5.40
2023-03-27T07:19:24.913Z,5.10
2023-03-27T07:20:31.135Z,5.80
2023-03-27T07:21:34.771Z,4.20
2023-03-27T07:22:42.604Z,4.50
2023-03-27T07:23:46.663Z,5.70
2023-03-27T07:24:51.251Z,5.70
2023-03-27T07:26:01.079Z,5.20
2023-03-27T07:27:08.193Z,4.80
2023-03-27T07:28:14.287Z,3.40
2023-03-27T07:29:17.320Z,4.60
2023-03-27T07:30:23.484Z,5.90
2023-03-27T07:31:42.428Z,5.30
2023-03-27T07:32:37.786Z,6.70
2023-03-27T07:33:40.381Z,5.50
2023-03-27T07:34:44.015Z,6.30
2023-03-27T07:35:51.524Z,4.90
2023-03-27T07:37:03.935Z,3.50
2023-03-27T07:38:11.137Z,5.60
2023-03-27T07:39:20.612Z,6.30
2023-03-27T07:40:36.765Z,6.00
2023-03-27T07:41:30.585Z,6.80
2023-03-27T07:42:34.005Z,6.40
2023-03-27T07:43:38.607Z,5.90
2023-03-27T07:44:41.696Z,8.40
2023-03-27T07:45:45.993Z,9.20
2023-03-27T07:47:02.338Z,6.80
2023-03-27T07:48:07.855Z,8.50
2023-03-27T07:49:10.711Z,6.90
2023-03-27T07:50:15.334Z,7.00
2023-03-27T07:51:19.458Z,6.40
2023-03-27T07:52:23.105Z,5.90
2023-03-27T07:53:33.474Z,7.50
2023-03-27T07:54:36.958Z,6.40
2023-03-27T07:55:43.004Z,7.09
2023-03-27T07:56:46.250Z,9.00
2023-03-27T07:58:09.084Z,6.70
2023-03-27T07:59:15.490Z,7.30
2023-03-27T08:00:21.798Z,7.00
2023-03-27T08:01:27.277Z,8.10
2023-03-27T08:02:30.221Z,10.36
2023-03-27T08:03:33.808Z,9.00
2023-03-27T08:04:37.078Z,9.60
2023-03-27T08:05:42.941Z,9.00
2023-03-27T08:06:48.337Z,7.60
2023-03-27T08:07:52.718Z,8.50
2023-03-27T08:08:57.946Z,8.40
2023-03-27T08:10:04.018Z,9.90
2023-03-27T08:11:19.411Z,8.30
2023-03-27T08:12:15.130Z,9.50
2023-03-27T08:13:19.384Z,9.10
2023-03-27T08:14:21.915Z,10.70
2023-03-27T08:15:24.742Z,10.00
2023-03-27T08:16:28.978Z,11.09
2023-03-27T08:17:33.113Z,11.60
2023-03-27T08:18:36.919Z,11.00
2023-03-27T08:19:41.010Z,10.70
2023-03-27T08:20:45.033Z,8.80
2023-03-27T08:21:48.041Z,10.90
2023-03-27T08:22:52.042Z,10.50
2023-03-27T08:25:11.738Z,11.10
2023-03-27T08:26:16.327Z,10.40
2023-03-27T08:27:21.523Z,13.40
2023-03-27T08:28:26.759Z,9.10
2023-03-27T08:29:30.145Z,9.40
2023-03-27T08:30:35.467Z,8.40
2023-03-27T08:31:39.760Z,11.10
2023-03-27T08:32:43.782Z,10.40
2023-03-27T08:33:48.057Z,9.10
2023-03-27T08:34:54.370Z,8.30
2023-03-27T08:36:00.066Z,7.30
2023-03-27T08:37:04.826Z,8.60
2023-03-27T08:38:23.721Z,9.40
2023-03-27T08:39:30.223Z,8.80
2023-03-27T08:40:36.560Z,8.00
2023-03-27T08:42:00.327Z,11.80
2023-03-27T08:43:07.632Z,8.30
2023-03-27T08:44:20.072Z,7.40
2023-03-27T08:46:43.632Z,9.10
2023-03-27T08:49:14.502Z,8.90
2023-03-27T08:50:34.311Z,8.90
2023-03-27T08:53:07.093Z,6.50
2023-03-27T08:55:40.690Z,6.60
2023-03-27T08:56:49.731Z,7.10
2023-03-27T08:57:52.995Z,5.40
2023-03-27T08:58:57.740Z,5.60
2023-03-27T09:00:04.608Z,6.10
2023-03-27T09:01:16.351Z,6.10
2023-03-27T09:02:45.618Z,4.80
2023-03-27T09:03:54.553Z,5.80
2023-03-27T09:05:21.667Z,5.60
2023-03-27T09:06:35.130Z,6.80
2023-03-27T09:07:59.369Z,4.80
2023-03-27T09:09:10.437Z,5.00
2023-03-27T09:10:26.631Z,5.00
2023-03-27T09:11:44.549Z,5.10
2023-03-27T09:13:08.076Z,5.00
2023-03-27T09:14:32.878Z,4.50
2023-03-27T09:15:42.549Z,5.30
2023-03-27T09:16:47.172Z,3.50
2023-03-27T09:18:01.430Z,5.00
2023-03-27T09:20:47.144Z,4.70
2023-03-27T09:21:53.179Z,3.80
2023-03-27T09:23:05.642Z,4.80
2023-03-27T09:24:20.844Z,4.00
2023-03-27T09:25:30.457Z,3.90
2023-03-27T09:27:04.457Z,3.30
2023-03-27T09:27:58.354Z,3.90
2023-03-27T09:29:22.012Z,4.40
2023-03-27T09:30:27.967Z,4.50
2023-03-27T09:33:04.679Z,3.40
2023-03-27T09:34:11.152Z,4.90
2023-03-27T09:35:16.318Z,4.40
2023-03-27T09:36:19.416Z,4.80
2023-03-27T09:37:21.832Z,3.00
2023-03-27T09:38:34.547Z,3.50
2023-03-27T09:39:41.872Z,3.80
2023-03-27T09:42:16.594Z,4.50
2023-03-27T09:43:44.746Z,4.00
2023-03-27T09:44:54.280Z,3.80
2023-03-27T09:45:57.098Z,5.00
2023-03-27T09:47:16.719Z,3.60
2023-03-27T09:48:29.751Z,3.30
2023-03-27T09:49:34.536Z,4.30
2023-03-27T09:50:45.237Z,4.90
2023-03-27T09:51:54.690Z,5.00
2023-03-27T09:53:13.767Z,3.10
2023-03-27T09:54:21.897Z,3.10
2023-03-27T09:55:26.834Z,4.90
2023-03-27T09:56:29.613Z,4.30
2023-03-27T09:57:34.870Z,3.80
2023-03-27T09:58:40.740Z,0.50
2023-03-27T10:00:01.296Z,3.50
2023-03-27T10:01:13.066Z,2.50
2023-03-27T10:02:28.102Z,3.20
2023-03-27T10:03:37.858Z,4.00
2023-03-27T10:04:41.521Z,3.60
2023-03-27T10:05:46.728Z,4.80
2023-03-27T10:07:11.402Z,3.10
2023-03-27T10:10:11.648Z,3.00
2023-03-27T10:12:35.325Z,3.50
2023-03-27T10:13:42.598Z,2.70
2023-03-27T10:14:48.712Z,2.90
2023-03-27T10:16:04.414Z,2.80
2023-03-27T10:17:24.051Z,2.80
2023-03-27T10:19:44.067Z,2.00
2023-03-27T10:20:51.876Z,2.40
2023-03-27T10:22:00.483Z,2.30
2023-03-27T10:23:08.723Z,1.90
2023-03-27T10:24:30.032Z,2.20
2023-03-27T10:25:41.445Z,2.00
2023-03-27T10:26:47.793Z,2.80
2023-03-27T10:27:51.902Z,2.40
2023-03-27T10:30:42.188Z,2.70
2023-03-27T10:32:04.757Z,2.20
2023-03-27T10:33:09.675Z,1.60
2023-03-27T10:34:32.028Z,3.20
2023-03-27T10:35:47.543Z,2.40
2023-03-27T10:36:57.187Z,2.00
2023-03-27T10:38:14.969Z,1.90
2023-03-27T10:39:37.953Z,1.90
2023-03-27T10:40:52.135Z,1.50
2023-03-27T10:41:57.755Z,3.00
2023-03-27T10:43:06.791Z,3.30
2023-03-27T10:44:19.070Z,1.70
2023-03-27T10:45:23.739Z,3.10
2023-03-27T10:46:28.656Z,1.50
2023-03-27T10:47:33.280Z,2.80
2023-03-27T10:48:55.220Z,1.50
2023-03-27T10:52:00.540Z,2.40
2023-03-27T10:55:04.962Z,1.70
2023-03-27T10:56:17.760Z,1.70
2023-03-27T10:57:24.008Z,1.40
2023-03-27T10:59:47.640Z,2.70
2023-03-27T11:02:20.798Z,2.20
2023-03-27T11:03:41.520Z,2.20
2023-03-27T11:04:56.760Z,3.10
2023-03-27T11:06:02.625Z,2.30
2023-03-27T11:07:32.891Z,3.00
2023-03-27T11:08:44.056Z,2.10
2023-03-27T11:11:10.637Z,2.50
2023-03-27T11:12:15.918Z,2.70
2023-03-27T11:13:28.569Z,2.50
2023-03-27T11:14:49.052Z,1.60
2023-03-27T11:17:51.304Z,2.70
2023-03-27T11:19:32.957Z,2.10
2023-03-27T11:22:29.559Z,2.60
2023-03-27T11:23:39.589Z,3.70
2023-03-27T11:24:58.744Z,2.30
2023-03-27T11:26:06.037Z,3.40
2023-03-27T11:27:26.401Z,4.00
2023-03-27T11:28:58.117Z,3.00
2023-03-27T11:30:12.650Z,3.30
2023-03-27T11:33:12.528Z,2.90
2023-03-27T11:34:29.265Z,2.50
2023-03-27T11:35:28.305Z,3.20
2023-03-27T11:36:50.009Z,2.30
2023-03-27T11:38:05.688Z,2.60
2023-03-27T11:39:27.069Z,2.50
2023-03-27T11:40:34.321Z,2.20
2023-03-27T11:41:38.987Z,3.30
2023-03-27T11:42:44.155Z,1.80
2023-03-27T11:43:46.755Z,1.90
2023-03-27T11:46:45.351Z,2.20
2023-03-27T11:49:50.273Z,1.50
2023-03-27T11:50:59.159Z,1.80
2023-03-27T11:52:09.301Z,2.50
2023-03-27T11:53:22.374Z,1.80
2023-03-27T11:54:48.553Z,1.40
2023-03-27T11:56:16.182Z,1.80
2023-03-27T11:57:24.158Z,1.80
2023-03-27T11:58:59.913Z,1.60
2023-03-27T12:00:17.701Z,1.70
2023-03-27T12:02:44.968Z,2.00
2023-03-27T12:04:02.911Z,2.60
2023-03-27T12:05:32.498Z,1.70
2023-03-27T12:07:13.312Z,1.50
2023-03-27T12:08:26.891Z,0.50
2023-03-27T12:11:05.294Z,2.00
2023-03-27T12:12:33.172Z,1.70
2023-03-27T12:14:18.432Z,2.30
2023-03-27T12:15:54.437Z,1.20
2023-03-27T12:17:14.490Z,1.70
2023-03-27T12:18:36.444Z,2.00
2023-03-27T12:20:16.003Z,1.80
2023-03-27T12:21:31.393Z,1.00
2023-03-27T12:22:42.225Z,2.90
2023-03-27T12:24:08.794Z,2.00
2023-03-27T12:25:38.181Z,3.00
2023-03-27T12:28:45.651Z,2.10
2023-03-27T12:30:33.798Z,2.10
2023-03-27T12:31:53.771Z,1.20
2023-03-27T12:33:25.335Z,4.90
2023-03-27T12:34:32.768Z,5.60
2023-03-27T12:35:47.152Z,5.70
2023-03-27T12:36:49.151Z,5.00
2023-03-27T12:38:00.940Z,2.20
2023-03-27T12:39:25.836Z,5.00
2023-03-27T12:40:32.359Z,4.90
2023-03-27T12:41:38.873Z,4.00
2023-03-27T12:42:51.613Z,4.90
2023-03-27T12:45:17.402Z,3.80
2023-03-27T12:46:29.026Z,2.50
2023-03-27T12:47:32.348Z,3.80
2023-03-27T12:49:04.506Z,3.00
2023-03-27T12:50:22.510Z,4.00
2023-03-27T12:52:53.088Z,2.30
2023-03-27T12:53:59.488Z,4.30
2023-03-27T12:55:15.063Z,1.70
2023-03-27T12:56:31.460Z,2.70
2023-03-27T12:57:42.869Z,3.00
2023-03-27T12:58:51.158Z,2.80
2023-03-27T13:00:03.118Z,2.40
2023-03-27T13:01:10.250Z,2.50
2023-03-27T13:02:21.982Z,0.00
2023-03-27T13:03:45.203Z,1.60
2023-03-27T13:05:08.627Z,3.00
2023-03-27T13:06:21.980Z,2.10
2023-03-27T13:08:01.836Z,1.80
2023-03-27T13:09:28.200Z,2.50
2023-03-27T13:10:43.863Z,1.80
2023-03-27T13:12:23.897Z,2.60
2023-03-27T13:13:42.708Z,1.90
2023-03-27T13:15:06.081Z,2.80
2023-03-27T13:16:33.906Z,2.30
2023-03-27T13:18:11.358Z,2.20
2023-03-27T13:20:57.470Z,2.70
2023-03-27T13:22:27.693Z,2.90
2023-03-27T13:24:08.723Z,2.00
2023-03-27T13:28:27.776Z,2.40
2023-03-27T13:29:34.080Z,2.80
2023-03-27T13:30:53.027Z,2.70
2023-03-27T13:32:35.710Z,2.70
2023-03-27T13:33:43.510Z,4.20
2023-03-27T13:35:01.627Z,4.20
2023-03-27T13:37:36.901Z,5.20
2023-03-27T13:38:54.079Z,5.70
2023-03-27T13:40:01.399Z,5.50
2023-03-27T13:41:42.534Z,5.20
2023-03-27T13:42:49.900Z,5.90
2023-03-27T13:43:54.281Z,6.20
2023-03-27T13:45:11.306Z,5.70
2023-03-27T13:46:17.487Z,6.60
2023-03-27T13:47:36.178Z,6.40
2023-03-27T13:48:54.380Z,7.60
2023-03-27T13:52:07.723Z,7.30
2023-03-27T13:53:42.806Z,6.40
2023-03-27T13:55:23.628Z,6.00
2023-03-27T13:58:27.191Z,7.10
2023-03-27T14:00:10.090Z,8.60
2023-03-27T14:01:29.953Z,9.90
2023-03-27T14:02:53.651Z,8.50
2023-03-27T14:06:04.116Z,8.10
2023-03-27T14:07:47.368Z,7.60
2023-03-27T14:10:52.767Z,9.60
2023-03-27T14:12:16.616Z,8.50
2023-03-27T14:13:42.049Z,9.20
2023-03-27T14:15:03.571Z,8.40
2023-03-27T14:16:45.815Z,8.10
2023-03-27T14:18:12.398Z,9.40
2023-03-27T14:19:55.181Z,8.60
2023-03-27T14:21:03.188Z,6.60
2023-03-27T14:22:19.861Z,8.60
2023-03-27T14:23:32.135Z,8.20
2023-03-27T14:24:57.212Z,6.60
2023-03-27T14:26:19.120Z,5.60
2023-03-27T14:27:22.507Z,7.20
2023-03-27T14:28:34.961Z,7.40
2023-03-27T14:29:39.677Z,7.90
2023-03-27T14:30:46.018Z,9.20
2023-03-27T14:31:50.948Z,8.30
2023-03-27T14:33:03.177Z,6.70
2023-03-27T14:34:21.433Z,6.70
2023-03-27T14:35:44.539Z,6.40
2023-03-27T14:36:51.828Z,9.00
2023-03-27T14:38:01.345Z,7.20
2023-03-27T14:39:09.220Z,7.10
2023-03-27T14:41:51.283Z,8.40
2023-03-27T14:42:54.968Z,9.60
2023-03-27T14:43:58.455Z,7.10
2023-03-27T14:46:24.067Z,10.40
2023-03-27T14:47:27.063Z,11.40
2023-03-27T14:48:36.629Z,11.60
2023-03-27T14:49:44.424Z,10.90
2023-03-27T14:50:53.149Z,10.10
2023-03-27T14:51:59.709Z,12.30
2023-03-27T14:53:09.388Z,9.30
2023-03-27T14:54:36.773Z,9.50
2023-03-27T14:55:39.786Z,8.00
2023-03-27T14:56:47.400Z,9.60
2023-03-27T14:57:59.517Z,10.30
2023-03-27T14:59:07.221Z,10.00
2023-03-27T15:00:22.942Z,8.10
2023-03-27T15:01:26.025Z,7.10
2023-03-27T15:02:34.285Z,8.80
2023-03-27T15:03:39.293Z,8.90
2023-03-27T15:04:43.327Z,7.90
2023-03-27T15:05:57.068Z,7.20
2023-03-27T15:08:28.925Z,6.30
2023-03-27T15:09:46.654Z,8.00
2023-03-27T15:11:11.709Z,6.80
2023-03-27T15:12:25.372Z,7.20
2023-03-27T15:13:31.744Z,5.70
2023-03-27T15:14:35.297Z,6.70
2023-03-27T15:15:39.793Z,6.60
2023-03-27T15:16:43.561Z,5.90
2023-03-27T15:17:47.036Z,6.20
2023-03-27T15:19:02.658Z,6.60
2023-03-27T15:21:28.975Z,6.90
2023-03-27T15:22:35.120Z,5.10
2023-03-27T15:23:50.368Z,5.90
2023-03-27T15:25:10.748Z,5.60
2023-03-27T15:26:19.433Z,6.60
2023-03-27T15:27:35.072Z,6.00
2023-03-27T15:30:24.882Z,6.00
2023-03-27T15:31:30.328Z,5.90
2023-03-27T15:32:41.925Z,6.10
2023-03-27T15:34:18.216Z,5.30
2023-03-27T15:35:39.694Z,5.40
2023-03-27T15:36:44.627Z,5.40
2023-03-27T15:37:47.511Z,4.30
2023-03-27T15:38:50.533Z,5.10
2023-03-27T15:40:04.738Z,6.60
2023-03-27T15:41:20.533Z,4.90
2023-03-27T15:42:24.134Z,4.50
2023-03-27T15:43:27.708Z,4.40
2023-03-27T15:44:32.615Z,7.40
2023-03-27T15:46:58.103Z,5.80
2023-03-27T15:48:05.437Z,5.80
2023-03-27T15:49:29.042Z,5.60
2023-03-27T15:50:33.309Z,6.40
2023-03-27T15:51:36.009Z,7.50
2023-03-27T15:52:38.788Z,7.09
2023-03-27T15:53:47.005Z,7.10
2023-03-27T15:54:55.201Z,7.90
2023-03-27T15:55:58.920Z,7.50
2023-03-27T15:57:11.680Z,7.00
2023-03-27T15:58:17.329Z,7.30
2023-03-27T15:59:20.829Z,7.10
2023-03-27T16:00:24.985Z,7.60
2023-03-27T16:01:40.654Z,9.90
2023-03-27T16:02:43.280Z,7.70
2023-03-27T16:03:47.626Z,9.55
2023-03-27T16:04:56.684Z,9.30
2023-03-27T16:06:00.003Z,9.20
2023-03-27T16:07:11.190Z,9.10
2023-03-27T16:09:55.831Z,10.30
2023-03-27T16:11:00.792Z,10.80
2023-03-27T16:12:05.350Z,8.60
2023-03-27T16:15:49.206Z,10.70
2023-03-27T16:17:10.727Z,10.50
2023-03-27T16:18:22.445Z,10.70
2023-03-27T16:19:25.615Z,11.50
2023-03-27T16:20:33.907Z,6.60
2023-03-27T16:21:36.714Z,9.90
2023-03-27T16:22:40.492Z,8.20
2023-03-27T16:23:43.721Z,11.20
2023-03-27T16:24:46.241Z,11.60
2023-03-27T16:25:49.660Z,10.00
2023-03-27T16:28:28.951Z,9.50
2023-03-27T16:29:31.424Z,8.00
2023-03-27T16:30:38.822Z,8.91
2023-03-27T16:31:42.017Z,8.30
2023-03-27T16:32:45.214Z,10.30
2023-03-27T16:33:48.382Z,9.50
2023-03-27T16:34:51.691Z,10.50
2023-03-27T16:35:57.645Z,4.00
2023-03-27T16:37:01.052Z,9.50
2023-03-27T16:38:03.789Z,10.50
2023-03-27T16:39:09.084Z,10.18
2023-03-27T16:40:12.457Z,10.40
2023-03-27T16:41:17.817Z,10.30
2023-03-27T16:42:25.824Z,10.40
2023-03-27T16:43:28.817Z,8.90
2023-03-27T16:44:32.612Z,8.20
2023-03-27T16:45:36.653Z,6.20
2023-03-27T16:46:40.448Z,10.20
2023-03-27T16:47:45.592Z,9.20
2023-03-27T16:48:51.149Z,9.90
2023-03-27T16:50:10.187Z,9.50
2023-03-27T16:51:00.934Z,10.10
2023-03-27T16:52:03.878Z,9.50
2023-03-27T16:53:06.731Z,4.90
2023-03-27T16:54:10.972Z,10.10
2023-03-27T16:55:13.508Z,8.70
2023-03-27T16:56:18.020Z,7.80
2023-03-27T16:57:22.093Z,9.00
2023-03-27T16:58:24.808Z,9.50
2023-03-27T16:59:28.249Z,7.55
2023-03-27T17:00:33.168Z,7.60
2023-03-27T17:01:36.573Z,8.40
2023-03-27T17:02:39.294Z,6.40
2023-03-27T17:03:42.623Z,8.82
2023-03-27T17:04:45.937Z,7.70
2023-03-27T17:05:48.547Z,7.80